Time;durP1;ratioP1;P1;durP2;ratioP2;P2;SDS_P1;SDS_P2;PMS_P1;PMS_P2;Temp;Humidity;BMP_temperature;BMP_pressure;BME280_temperature;BME280_humidity;BME280_pressure;Samples;Min_cycle;Max_cycle;Signal;HPM_P1;HPM_P2
2021/12/07 00:00:43;;;;;;;;;;;1.20;99.90;;;;;;5050419;28;20351;-80
2021/12/07 00:03:10;;;;;;;;;;;1.20;99.90;;;;;;5051319;28;19931;-80
2021/12/07 00:05:37;;;;;;;;;;;1.20;99.90;;;;;;5049885;28;19978;-81
2021/12/07 00:08:04;;;;;;;;;;;1.20;99.90;;;;;;5049644;28;20329;-80
2021/12/07 00:10:31;;;;;;;;;;;1.20;99.90;;;;;;5051089;28;19921;-80
2021/12/07 00:12:58;;;;;;;;;;;1.30;99.90;;;;;;5049886;28;20175;-80
2021/12/07 00:15:25;;;;;;;;;;;1.30;99.90;;;;;;5049739;28;20367;-80
2021/12/07 00:17:54;;;;;;;;;;;1.40;99.90;;;;;;5043238;28;19928;-81
2021/12/07 00:20:24;;;;;;;;;;;1.40;99.90;;;;;;5047254;28;19920;-80
2021/12/07 00:22:53;;;;;;;;;;;1.50;99.90;;;;;;5051135;28;20043;-81
2021/12/07 00:25:20;;;;;;;;;;;1.50;99.90;;;;;;5048926;28;19921;-81
2021/12/07 00:27:46;;;;;;;;;;;1.50;99.90;;;;;;5057797;28;20442;-80
2021/12/07 00:30:14;;;;;;;;;;;1.50;99.90;;;;;;5050664;28;20038;-81
2021/12/07 00:32:48;;;;;;;;;;;1.50;99.90;;;;;;5048498;28;19920;-80
2021/12/07 00:37:49;;;;;;;;;;;1.60;99.90;;;;;;5047828;28;20036;-80
2021/12/07 00:40:21;;;;;;;;;;;1.50;99.90;;;;;;5047358;28;21040;-81
2021/12/07 00:42:48;;;;;;;;;;;1.50;99.90;;;;;;5050331;28;19984;-80
2021/12/07 00:45:18;;;;;;;;;;;1.40;99.90;;;;;;5048381;28;20003;-81
2021/12/07 00:47:52;;;;;;;;;;;1.40;99.90;;;;;;5049316;28;20011;-80
2021/12/07 00:50:20;;;;;;;;;;;1.30;99.90;;;;;;5050287;28;20025;-81
2021/12/07 00:52:47;;;;;;;;;;;1.30;99.90;;;;;;5045319;28;19961;-81
2021/12/07 00:55:16;;;;;;;;;;;1.30;99.90;;;;;;5049435;28;19986;-81
2021/12/07 00:57:43;;;;;;;;;;;1.30;99.90;;;;;;5048467;28;19943;-81
2021/12/07 01:00:16;;;;;;;;;;;1.30;99.90;;;;;;5046725;28;19927;-81
2021/12/07 01:02:44;;;;;;;;;;;1.20;99.90;;;;;;5038289;28;19920;-81
2021/12/07 01:05:18;;;;;;;;;;;1.20;99.90;;;;;;5048739;28;20181;-81
2021/12/07 01:26:51;;;;;;;;;;;1.30;99.90;;;;;;5048811;28;19921;-82
2021/12/07 01:29:21;;;;;;;;;;;1.20;99.90;;;;;;5047442;28;20008;-82
2021/12/07 01:32:00;;;;;;;;;;;1.20;99.90;;;;;;5049740;28;19933;-82
2021/12/07 01:45:38;;;;;;;;;;;1.30;99.90;;;;;;5048596;28;20371;-81
2021/12/07 01:53:09;;;;;;;;;;;1.40;99.90;;;;;;5047820;28;19921;-81
2021/12/07 02:00:50;;;;;;;;;;;1.50;99.90;;;;;;5036626;28;20011;-81
2021/12/07 02:03:17;;;;;;;;;;;1.50;99.90;;;;;;5046572;28;19974;-81
2021/12/07 02:05:46;;;;;;;;;;;1.60;99.90;;;;;;5037822;28;20345;-81
2021/12/07 02:08:13;;;;;;;;;;;1.60;99.90;;;;;;5049941;28;19934;-82
2021/12/07 02:10:40;;;;;;;;;;;1.60;99.90;;;;;;5044383;28;20425;-82
2021/12/07 02:13:21;;;;;;;;;;;1.70;99.90;;;;;;5046058;28;19928;-81
2021/12/07 02:15:54;;;;;;;;;;;1.70;99.90;;;;;;5053899;28;19943;-81
2021/12/07 02:18:21;;;;;;;;;;;1.70;99.90;;;;;;5047094;28;20314;-81
2021/12/07 02:20:48;;;;;;;;;;;1.70;99.90;;;;;;5045176;28;19921;-81
2021/12/07 02:23:15;;;;;;;;;;;1.70;99.90;;;;;;5034340;28;19932;-81
2021/12/07 02:25:42;;;;;;;;;;;1.80;99.90;;;;;;5048431;28;20008;-81
2021/12/07 02:28:14;;;;;;;;;;;1.80;99.90;;;;;;5045712;28;20017;-82
2021/12/07 02:30:41;;;;;;;;;;;1.80;99.90;;;;;;5046887;28;20040;-82
2021/12/07 02:33:09;;;;;;;;;;;1.80;99.90;;;;;;5047197;28;19929;-81
2021/12/07 02:35:36;;;;;;;;;;;1.80;99.90;;;;;;5047782;28;20027;-81
2021/12/07 02:38:04;;;;;;;;;;;1.80;99.90;;;;;;5043308;28;20305;-81
2021/12/07 02:40:30;;;;;;;;;;;1.80;99.90;;;;;;5047541;28;20401;-81
2021/12/07 02:43:04;;;;;;;;;;;1.80;99.90;;;;;;5050793;28;20495;-80
2021/12/07 02:45:31;;;;;;;;;;;1.90;99.90;;;;;;5052377;28;20007;-81
2021/12/07 02:47:58;;;;;;;;;;;1.90;99.90;;;;;;5044667;28;20395;-81
2021/12/07 02:50:24;;;;;;;;;;;1.90;99.90;;;;;;5042158;28;19924;-81
2021/12/07 02:52:54;;;;;;;;;;;1.90;99.90;;;;;;5046825;28;19927;-76
2021/12/07 02:55:21;;;;;;;;;;;1.90;99.90;;;;;;5057222;28;19931;-76
2021/12/07 02:57:48;;;;;;;;;;;1.90;99.90;;;;;;5045982;28;20015;-76
2021/12/07 03:00:20;;;;;;;;;;;2.00;99.90;;;;;;5046474;28;19968;-76
2021/12/07 03:02:55;;;;;;;;;;;2.00;99.90;;;;;;5045591;28;19963;-76
2021/12/07 03:27:07;;;;;;;;;;;2.30;99.90;;;;;;5047302;28;19920;-76
2021/12/07 03:29:34;;;;;;;;;;;2.30;99.90;;;;;;5046833;28;19931;-76
2021/12/07 03:32:03;;;;;;;;;;;2.30;99.90;;;;;;5047053;28;19938;-77
2021/12/07 03:34:30;;;;;;;;;;;2.30;99.90;;;;;;5046553;28;19921;-76
2021/12/07 03:37:02;;;;;;;;;;;2.30;99.90;;;;;;5046297;28;19930;-76
2021/12/07 03:39:29;;;;;;;;;;;2.30;99.90;;;;;;5046436;28;20077;-76
2021/12/07 03:41:56;;;;;;;;;;;2.30;99.90;;;;;;5040117;28;19928;-76
2021/12/07 03:44:22;;;;;;;;;;;2.30;99.90;;;;;;5046856;28;19921;-76
2021/12/07 03:46:49;;;;;;;;;;;2.30;99.90;;;;;;5049039;28;20016;-76
2021/12/07 03:49:16;;;;;;;;;;;2.30;99.90;;;;;;5045607;28;19950;-76
2021/12/07 03:51:43;;;;;;;;;;;2.30;99.90;;;;;;5046696;28;19921;-76
2021/12/07 03:54:09;;;;;;;;;;;2.30;99.90;;;;;;5044868;28;20384;-76
2021/12/07 03:56:36;;;;;;;;;;;2.30;99.90;;;;;;5045864;28;19999;-76
2021/12/07 03:59:03;;;;;;;;;;;2.40;99.90;;;;;;5039570;28;20390;-76
2021/12/07 04:01:29;;;;;;;;;;;2.50;99.90;;;;;;5049491;28;19935;-76
2021/12/07 04:03:56;;;;;;;;;;;2.60;99.90;;;;;;5050801;28;20376;-76
2021/12/07 04:06:23;;;;;;;;;;;2.70;99.90;;;;;;5046398;28;20021;-76
2021/12/07 04:08:50;;;;;;;;;;;2.80;99.90;;;;;;5051526;28;19921;-74
2021/12/07 04:11:17;;;;;;;;;;;2.90;99.90;;;;;;5045118;28;20405;-76
2021/12/07 04:13:45;;;;;;;;;;;2.90;99.90;;;;;;5051044;28;20000;-76
2021/12/07 04:16:13;;;;;;;;;;;3.00;99.90;;;;;;5042014;28;19970;-76
2021/12/07 04:18:40;;;;;;;;;;;3.00;99.90;;;;;;5047751;28;19924;-76
2021/12/07 04:21:10;;;;;;;;;;;3.00;99.90;;;;;;5050588;28;20056;-76
2021/12/07 04:23:37;;;;;;;;;;;3.10;99.90;;;;;;5055027;28;20404;-76
2021/12/07 04:26:07;;;;;;;;;;;3.10;99.90;;;;;;5043736;28;19967;-76
2021/12/07 04:28:36;;;;;;;;;;;3.00;99.90;;;;;;5063263;28;19925;-75
2021/12/07 04:31:04;;;;;;;;;;;3.10;99.90;;;;;;5043982;28;19924;-76
2021/12/07 04:33:30;;;;;;;;;;;3.10;99.90;;;;;;5050119;28;19927;-76
2021/12/07 04:36:02;;;;;;;;;;;3.10;99.90;;;;;;5048618;28;19979;-73
2021/12/07 04:38:28;;;;;;;;;;;3.10;99.90;;;;;;5049510;28;20000;-73
2021/12/07 04:40:55;;;;;;;;;;;3.10;99.90;;;;;;5052316;28;19926;-73
2021/12/07 04:43:22;;;;;;;;;;;3.10;99.90;;;;;;5050737;28;19929;-75
2021/12/07 04:46:01;;;;;;;;;;;3.00;99.90;;;;;;5047650;28;19935;-75
2021/12/07 04:48:58;;;;;;;;;;;3.00;99.90;;;;;;5049139;28;20282;-75
2021/12/07 04:59:34;;;;;;;;;;;3.00;99.90;;;;;;5045966;28;20066;-74
2021/12/07 05:02:01;;;;;;;;;;;3.00;99.90;;;;;;5044398;28;19931;-74
2021/12/07 05:04:33;;;;;;;;;;;3.00;99.90;;;;;;5045356;28;19972;-73
2021/12/07 05:07:11;;;;;;;;;;;3.00;99.90;;;;;;5051939;28;19941;-73
2021/12/07 05:15:21;;;;;;;;;;;3.00;99.90;;;;;;5038290;28;20008;-74
2021/12/07 05:18:18;;;;;;;;;;;3.00;99.90;;;;;;5043307;28;20019;-73
2021/12/07 05:39:46;;;;;;;;;;;2.80;99.90;;;;;;5043998;28;19974;-74
2021/12/07 05:42:13;;;;;;;;;;;2.80;99.90;;;;;;5046714;28;19934;-73
2021/12/07 05:44:40;;;;;;;;;;;2.90;99.90;;;;;;5042085;28;19928;-73
2021/12/07 05:47:08;;;;;;;;;;;2.80;99.90;;;;;;5054398;28;20459;-73
2021/12/07 05:49:35;;;;;;;;;;;2.80;99.90;;;;;;5046619;28;19927;-73
2021/12/07 05:52:02;;;;;;;;;;;2.80;99.90;;;;;;5037317;28;20367;-73
2021/12/07 05:54:28;;;;;;;;;;;2.90;99.90;;;;;;5044441;28;19935;-73
2021/12/07 05:56:55;;;;;;;;;;;2.90;99.90;;;;;;5047203;28;20291;-74
2021/12/07 05:59:22;;;;;;;;;;;2.90;99.90;;;;;;5047341;28;19960;-73
2021/12/07 06:01:48;;;;;;;;;;;2.90;99.90;;;;;;5045487;28;19925;-73
2021/12/07 06:04:15;;;;;;;;;;;2.80;99.90;;;;;;5047380;28;19929;-73
2021/12/07 06:06:42;;;;;;;;;;;2.80;99.90;;;;;;5028257;28;19921;-74
2021/12/07 06:09:09;;;;;;;;;;;2.70;99.90;;;;;;5045513;28;20359;-73
2021/12/07 06:11:35;;;;;;;;;;;2.60;99.90;;;;;;5044000;28;20380;-73
2021/12/07 06:14:02;;;;;;;;;;;2.60;99.90;;;;;;5037102;28;20044;-73
2021/12/07 06:16:31;;;;;;;;;;;2.60;99.90;;;;;;5042972;28;19967;-74
2021/12/07 06:18:58;;;;;;;;;;;2.50;99.90;;;;;;5051964;28;20379;-73
2021/12/07 06:21:25;;;;;;;;;;;2.50;99.90;;;;;;5030188;28;20372;-73
2021/12/07 06:23:53;;;;;;;;;;;2.40;99.90;;;;;;5046191;28;20296;-73
2021/12/07 06:26:20;;;;;;;;;;;2.30;99.90;;;;;;5035821;28;20546;-73
2021/12/07 06:28:46;;;;;;;;;;;2.30;99.90;;;;;;5053592;28;19991;-73
2021/12/07 06:31:15;;;;;;;;;;;2.30;99.90;;;;;;5065773;28;19969;-73
2021/12/07 06:33:42;;;;;;;;;;;2.30;99.90;;;;;;5069475;28;19939;-74
2021/12/07 06:36:09;;;;;;;;;;;2.30;99.90;;;;;;5065758;28;19935;-74
2021/12/07 06:38:36;;;;;;;;;;;2.20;99.90;;;;;;5072023;28;19909;-74
2021/12/07 06:41:03;;;;;;;;;;;2.20;99.90;;;;;;5067113;28;19932;-74
2021/12/07 06:43:30;;;;;;;;;;;2.20;99.90;;;;;;5061314;28;20047;-74
2021/12/07 06:45:57;;;;;;;;;;;2.20;99.90;;;;;;5045870;28;20081;-74
2021/12/07 06:48:24;;;;;;;;;;;2.20;99.90;;;;;;5039327;28;19925;-74
2021/12/07 06:50:51;;;;;;;;;;;2.30;99.90;;;;;;5043655;28;19927;-73
2021/12/07 06:53:17;;;;;;;;;;;2.30;99.90;;;;;;5042554;28;19956;-73
2021/12/07 06:55:44;;;;;;;;;;;2.40;99.90;;;;;;5040139;28;20333;-73
2021/12/07 06:58:13;;;;;;;;;;;2.50;99.90;;;;;;5044795;28;20464;-73
2021/12/07 07:00:43;;;;;;;;;;;2.50;99.90;;;;;;5046726;28;20350;-74
2021/12/07 07:03:09;;;;;;;;;;;2.50;99.90;;;;;;5046270;28;20358;-74
2021/12/07 07:05:36;;;;;;;;;;;2.60;99.90;;;;;;5042646;28;19932;-74
2021/12/07 07:08:03;;;;;;;;;;;2.70;99.90;;;;;;5045476;28;19920;-74
2021/12/07 07:10:30;;;;;;;;;;;2.70;99.90;;;;;;5041507;28;19948;-74
2021/12/07 07:12:57;;;;;;;;;;;2.80;99.90;;;;;;5043694;28;20351;-74
2021/12/07 07:15:24;;;;;;;;;;;2.90;99.90;;;;;;5047210;28;20002;-74
2021/12/07 07:17:51;;;;;;;;;;;2.90;99.90;;;;;;5035704;28;19921;-74
2021/12/07 07:20:18;;;;;;;;;;;2.90;99.90;;;;;;5036686;28;19953;-76
2021/12/07 07:22:44;;;;;;;;;;;3.00;99.90;;;;;;5043905;28;19938;-74
2021/12/07 07:25:11;;;;;;;;;;;3.00;99.90;;;;;;5036069;28;19970;-74
2021/12/07 07:27:41;;;;;;;;;;;3.00;99.90;;;;;;5042775;28;20031;-74
2021/12/07 07:30:09;;;;;;;;;;;3.00;99.90;;;;;;5045982;28;19935;-74
2021/12/07 07:32:36;;;;;;;;;;;3.00;99.90;;;;;;5044004;28;19924;-74
2021/12/07 07:35:04;;;;;;;;;;;3.00;99.90;;;;;;5041393;28;20028;-74
2021/12/07 07:37:31;;;;;;;;;;;3.00;99.90;;;;;;5043424;28;21921;-74
2021/12/07 07:39:58;;;;;;;;;;;3.00;99.90;;;;;;5033843;28;19924;-74
2021/12/07 07:42:24;;;;;;;;;;;3.10;99.90;;;;;;5051223;28;19921;-75
2021/12/07 07:44:51;;;;;;;;;;;3.10;99.90;;;;;;5046842;28;19920;-74
2021/12/07 07:47:18;;;;;;;;;;;3.10;99.90;;;;;;5048780;28;19925;-74
2021/12/07 07:49:44;;;;;;;;;;;3.00;99.90;;;;;;5048611;28;20347;-74
2021/12/07 07:52:11;;;;;;;;;;;3.00;99.90;;;;;;5039251;28;19937;-72
2021/12/07 07:54:38;;;;;;;;;;;3.00;99.90;;;;;;5040119;28;20481;-71
2021/12/07 07:57:04;;;;;;;;;;;2.90;99.90;;;;;;5044972;28;20148;-72
2021/12/07 07:59:31;;;;;;;;;;;3.00;99.90;;;;;;5046921;28;19956;-72
2021/12/07 08:01:58;;;;;;;;;;;3.00;99.90;;;;;;5045265;28;19970;-72
2021/12/07 08:04:25;;;;;;;;;;;3.10;99.90;;;;;;5045121;28;19921;-71
2021/12/07 08:06:51;;;;;;;;;;;3.10;99.90;;;;;;5057315;28;19920;-72
2021/12/07 08:09:18;;;;;;;;;;;3.20;99.90;;;;;;5045149;28;19929;-71
2021/12/07 08:11:47;;;;;;;;;;;3.30;99.90;;;;;;5048109;28;19932;-71
2021/12/07 08:14:17;;;;;;;;;;;3.30;99.90;;;;;;5048202;28;19937;-72
2021/12/07 08:16:45;;;;;;;;;;;3.40;99.90;;;;;;5048826;28;20114;-71
2021/12/07 08:19:11;;;;;;;;;;;3.50;99.90;;;;;;5041941;28;19920;-73
2021/12/07 08:21:38;;;;;;;;;;;3.60;99.90;;;;;;5046573;28;19928;-73
2021/12/07 08:24:05;;;;;;;;;;;3.70;99.90;;;;;;5045252;28;19935;-72
2021/12/07 08:26:32;;;;;;;;;;;;;;;;;;5039089;28;20471;-73
2021/12/07 08:29:01;;;;;;;;;;;4.00;99.90;;;;;;5043467;28;19927;-73
2021/12/07 08:31:28;;;;;;;;;;;4.20;99.90;;;;;;5050943;28;19931;-73
2021/12/07 08:33:55;;;;;;;;;;;4.20;99.90;;;;;;5049099;28;20268;-73
2021/12/07 08:36:22;;;;;;;;;;;4.30;99.90;;;;;;5050272;28;19999;-73
2021/12/07 08:38:50;;;;;;;;;;;4.50;99.90;;;;;;5046971;28;19929;-73
2021/12/07 08:41:16;;;;;;;;;;;4.80;99.90;;;;;;5058872;28;20011;-76
2021/12/07 08:43:49;;;;;;;;;;;5.20;99.90;;;;;;5048951;28;20319;-76
2021/12/07 08:46:19;;;;;;;;;;;5.40;99.90;;;;;;5046370;28;20008;-76
2021/12/07 08:48:46;;;;;;;;;;;5.40;99.90;;;;;;5045407;28;20637;-73
2021/12/07 08:51:14;;;;;;;;;;;5.20;99.90;;;;;;5044076;28;19924;-73
2021/12/07 08:53:52;;;;;;;;;;;5.00;99.90;;;;;;5049095;28;19924;-73
2021/12/07 09:01:50;;;;;;;;;;;4.90;99.90;;;;;;5044224;28;20375;-73
2021/12/07 09:04:18;;;;;;;;;;;4.80;99.90;;;;;;5044206;28;19924;-73
2021/12/07 09:06:49;;;;;;;;;;;4.80;99.90;;;;;;5041894;28;19920;-73
2021/12/07 09:09:16;;;;;;;;;;;4.80;99.90;;;;;;5046187;28;19979;-73
2021/12/07 09:11:43;;;;;;;;;;;4.70;99.90;;;;;;5047206;28;19920;-73
2021/12/07 09:14:12;;;;;;;;;;;4.70;99.90;;;;;;5046537;28;20038;-74
2021/12/07 09:16:39;;;;;;;;;;;4.60;99.90;;;;;;5041841;28;19941;-74
2021/12/07 09:19:05;;;;;;;;;;;4.60;99.90;;;;;;5059381;28;20002;-73
2021/12/07 09:21:33;;;;;;;;;;;4.60;99.90;;;;;;5044906;28;19947;-73
2021/12/07 09:23:59;;;;;;;;;;;4.60;99.90;;;;;;5046642;28;19921;-73
2021/12/07 09:26:26;;;;;;;;;;;4.60;99.90;;;;;;5048004;28;19921;-73
2021/12/07 09:28:53;;;;;;;;;;;4.70;99.90;;;;;;5048370;28;19922;-73
2021/12/07 09:31:22;;;;;;;;;;;4.70;99.90;;;;;;5043249;28;19950;-73
2021/12/07 09:33:54;;;;;;;;;;;4.80;99.90;;;;;;5042912;28;19950;-74
2021/12/07 09:36:21;;;;;;;;;;;4.90;99.90;;;;;;5033648;28;19927;-74
2021/12/07 09:38:53;;;;;;;;;;;4.90;99.90;;;;;;5049008;28;19928;-74
2021/12/07 09:41:20;;;;;;;;;;;4.90;99.90;;;;;;5039001;28;19943;-73
2021/12/07 09:43:50;;;;;;;;;;;4.90;99.90;;;;;;5046242;28;19935;-74
2021/12/07 09:46:17;;;;;;;;;;;5.00;99.90;;;;;;5045930;28;19921;-73
2021/12/07 09:48:44;;;;;;;;;;;5.00;99.90;;;;;;5034591;28;20411;-73
2021/12/07 09:51:16;;;;;;;;;;;5.00;99.90;;;;;;5048266;28;19931;-73
2021/12/07 09:53:43;;;;;;;;;;;5.00;99.90;;;;;;5044761;28;19924;-73
2021/12/07 09:56:10;;;;;;;;;;;5.10;99.90;;;;;;5045099;28;20016;-73
2021/12/07 09:58:38;;;;;;;;;;;5.10;99.90;;;;;;5046834;28;20300;-74
2021/12/07 10:01:06;;;;;;;;;;;5.10;99.90;;;;;;5049189;28;19921;-73
2021/12/07 10:03:33;;;;;;;;;;;5.10;99.90;;;;;;5042135;28;20343;-73
2021/12/07 10:06:04;;;;;;;;;;;5.10;99.90;;;;;;5043638;28;20015;-73
2021/12/07 10:08:31;;;;;;;;;;;5.00;99.90;;;;;;5046938;28;20018;-73
2021/12/07 10:10:59;;;;;;;;;;;5.00;99.90;;;;;;5046536;28;20026;-73
2021/12/07 10:13:28;;;;;;;;;;;5.00;99.90;;;;;;5038914;28;19953;-73
2021/12/07 10:15:56;;;;;;;;;;;4.90;99.90;;;;;;5040420;28;19928;-73
2021/12/07 10:18:24;;;;;;;;;;;5.00;99.90;;;;;;5039512;28;19925;-73
2021/12/07 10:21:24;;;;;;;;;;;5.00;99.90;;;;;;5041835;28;19925;-73
2021/12/07 10:23:56;;;;;;;;;;;5.10;99.90;;;;;;5043831;28;19929;-73
2021/12/07 10:26:24;;;;;;;;;;;5.10;99.90;;;;;;5040326;28;19920;-73
2021/12/07 10:28:53;;;;;;;;;;;5.10;99.90;;;;;;5043312;28;20351;-73
2021/12/07 10:31:29;;;;;;;;;;;5.10;99.90;;;;;;5041648;28;20448;-73
2021/12/07 10:34:06;;;;;;;;;;;5.20;99.90;;;;;;5050621;28;19920;-73
2021/12/07 10:36:32;;;;;;;;;;;5.20;99.90;;;;;;5043585;28;19928;-73
2021/12/07 10:39:19;;;;;;;;;;;5.20;99.90;;;;;;5042533;28;19925;-73
2021/12/07 10:41:51;;;;;;;;;;;5.40;99.90;;;;;;5043929;28;19921;-73
2021/12/07 10:44:21;;;;;;;;;;;5.40;99.90;;;;;;5046020;28;19920;-73
2021/12/07 10:46:52;;;;;;;;;;;5.40;99.90;;;;;;5044978;28;19930;-73
2021/12/07 10:49:21;;;;;;;;;;;5.50;99.90;;;;;;5052356;28;20356;-73
2021/12/07 10:52:14;;;;;;;;;;;5.70;99.90;;;;;;5041424;28;20060;-73
2021/12/07 10:54:45;;;;;;;;;;;5.70;99.90;;;;;;5046703;28;19921;-74
2021/12/07 10:57:21;;;;;;;;;;;5.80;99.90;;;;;;5041406;28;19926;-73
2021/12/07 10:59:54;;;;;;;;;;;5.90;99.90;;;;;;5040959;28;20011;-73
2021/12/07 11:02:22;;;;;;;;;;;6.00;99.90;;;;;;5043274;28;20444;-75
2021/12/07 11:04:49;;;;;;;;;;;6.20;99.90;;;;;;5041949;28;20356;-75
2021/12/07 11:07:16;;;;;;;;;;;6.40;99.90;;;;;;5042527;28;19929;-74
2021/12/07 11:12:54;;;;;;;;;;;8.00;99.90;;;;;;5034569;28;20379;-75
2021/12/07 11:15:28;;;;;;;;;;;9.30;99.90;;;;;;5041504;28;19921;-75
2021/12/07 11:17:56;;;;;;;;;;;9.40;99.90;;;;;;5037143;28;20168;-75
2021/12/07 11:20:23;;;;;;;;;;;8.90;99.90;;;;;;5040301;28;20523;-74
2021/12/07 11:23:16;;;;;;;;;;;8.00;99.90;;;;;;5043733;28;20007;-75
2021/12/07 11:31:11;;;;;;;;;;;9.00;99.90;;;;;;5043147;28;20031;-75
2021/12/07 11:33:38;;;;;;;;;;;9.30;99.90;;;;;;5040547;28;19924;-75
2021/12/07 11:36:18;;;;;;;;;;;9.40;99.90;;;;;;5044908;28;19920;-75
2021/12/07 11:38:45;;;;;;;;;;;9.40;99.90;;;;;;5039186;28;19979;-75
2021/12/07 11:41:16;;;;;;;;;;;9.20;99.90;;;;;;5026305;28;19924;-75
2021/12/07 11:43:51;;;;;;;;;;;9.50;99.90;;;;;;5043929;28;19921;-74
2021/12/07 11:46:21;;;;;;;;;;;9.70;99.90;;;;;;5039865;28;19952;-75
2021/12/07 11:48:48;;;;;;;;;;;10.20;99.90;;;;;;5036463;28;20050;-75
2021/12/07 11:51:14;;;;;;;;;;;10.80;99.90;;;;;;5036147;28;19921;-75
2021/12/07 11:53:42;;;;;;;;;;;11.00;99.90;;;;;;5047201;28;19967;-75
2021/12/07 11:56:09;;;;;;;;;;;11.00;99.90;;;;;;5040185;28;20082;-75
2021/12/07 11:58:36;;;;;;;;;;;10.70;99.90;;;;;;5041612;28;19931;-74
2021/12/07 12:01:06;;;;;;;;;;;9.80;99.90;;;;;;5046976;28;19932;-75
2021/12/07 12:03:33;;;;;;;;;;;9.10;99.90;;;;;;5041403;28;19982;-75
2021/12/07 12:06:00;;;;;;;;;;;9.10;99.90;;;;;;5042071;28;19925;-75
2021/12/07 12:08:30;;;;;;;;;;;9.80;99.90;;;;;;5040695;28;19925;-75
2021/12/07 12:11:10;;;;;;;;;;;10.10;99.90;;;;;;5038852;28;19921;-75
2021/12/07 12:13:57;;;;;;;;;;;10.10;99.90;;;;;;5039753;28;20011;-75
2021/12/07 12:16:25;;;;;;;;;;;10.40;99.90;;;;;;5040251;28;20282;-75
2021/12/07 12:19:05;;;;;;;;;;;10.30;99.90;;;;;;5040517;28;19931;-75
2021/12/07 12:21:31;;;;;;;;;;;10.50;99.90;;;;;;5039921;28;20016;-75
2021/12/07 12:24:20;;;;;;;;;;;10.50;99.90;;;;;;5039018;28;19929;-75
2021/12/07 12:26:50;;;;;;;;;;;10.00;99.90;;;;;;5039865;28;19924;-75
2021/12/07 12:29:22;;;;;;;;;;;10.20;99.90;;;;;;5041288;28;19928;-75
2021/12/07 12:31:53;;;;;;;;;;;10.40;99.90;;;;;;5045401;28;19929;-75
2021/12/07 12:34:21;;;;;;;;;;;10.40;99.90;;;;;;5045537;28;19924;-73
2021/12/07 12:36:59;;;;;;;;;;;10.10;99.90;;;;;;5045369;28;20457;-73
2021/12/07 12:39:58;;;;;;;;;;;9.40;99.90;;;;;;5042834;28;19931;-73
2021/12/07 12:42:35;;;;;;;;;;;8.80;99.90;;;;;;5032872;28;19927;-75
2021/12/07 12:45:23;;;;;;;;;;;8.00;99.90;;;;;;5053746;28;19925;-76
2021/12/07 12:47:55;;;;;;;;;;;7.80;99.90;;;;;;5043614;28;20055;-75
2021/12/07 12:50:35;;;;;;;;;;;8.50;99.90;;;;;;5045888;28;19987;-74
2021/12/07 12:53:05;;;;;;;;;;;9.30;99.90;;;;;;5059548;28;19924;-74
2021/12/07 12:55:31;;;;;;;;;;;9.90;99.90;;;;;;5037276;28;19929;-73
2021/12/07 12:58:00;;;;;;;;;;;10.10;99.90;;;;;;5042861;28;20287;-74
2021/12/07 13:00:47;;;;;;;;;;;10.30;99.90;;;;;;5043891;28;20019;-74
2021/12/07 13:03:14;;;;;;;;;;;10.60;99.90;;;;;;5041189;28;20011;-74
2021/12/07 13:05:43;;;;;;;;;;;10.80;99.90;;;;;;5043143;28;20316;-74
2021/12/07 13:08:16;;;;;;;;;;;10.90;99.90;;;;;;5037120;28;19932;-74
2021/12/07 13:11:00;;;;;;;;;;;10.80;99.90;;;;;;5042916;28;19921;-75
2021/12/07 13:13:34;;;;;;;;;;;10.10;99.90;;;;;;5037914;28;19953;-75
2021/12/07 13:16:14;;;;;;;;;;;9.40;99.90;;;;;;5037558;28;19970;-74
2021/12/07 13:18:42;;;;;;;;;;;8.70;99.90;;;;;;5039379;28;19979;-74
2021/12/07 13:21:28;;;;;;;;;;;8.10;99.90;;;;;;5050961;28;20449;-74
2021/12/07 13:24:03;;;;;;;;;;;7.80;99.90;;;;;;5042913;28;19924;-75
2021/12/07 13:26:34;;;;;;;;;;;7.40;99.90;;;;;;5043704;28;19979;-75
2021/12/07 13:29:05;;;;;;;;;;;7.00;99.90;;;;;;5040464;28;20286;-75
2021/12/07 13:31:37;;;;;;;;;;;6.80;99.90;;;;;;5035457;28;19925;-75
2021/12/07 13:34:04;;;;;;;;;;;6.60;99.90;;;;;;5053163;28;19928;-75
2021/12/07 13:36:40;;;;;;;;;;;6.50;99.90;;;;;;5044833;28;19960;-75
2021/12/07 13:39:10;;;;;;;;;;;6.60;99.90;;;;;;5035800;28;19986;-75
2021/12/07 13:41:47;;;;;;;;;;;6.70;99.90;;;;;;5044279;28;20003;-74
2021/12/07 13:44:14;;;;;;;;;;;6.80;99.90;;;;;;5038063;28;20231;-74
2021/12/07 13:46:41;;;;;;;;;;;6.90;99.90;;;;;;5045029;28;20029;-75
2021/12/07 13:49:09;;;;;;;;;;;6.80;99.90;;;;;;5043075;28;20019;-74
2021/12/07 13:51:37;;;;;;;;;;;6.60;99.90;;;;;;5040311;28;20015;-74
2021/12/07 13:54:05;;;;;;;;;;;6.20;99.90;;;;;;5038598;28;19927;-74
2021/12/07 13:56:33;;;;;;;;;;;5.80;99.90;;;;;;5027858;28;20036;-74
2021/12/07 13:59:03;;;;;;;;;;;5.60;99.90;;;;;;5042191;28;19978;-74
2021/12/07 14:01:30;;;;;;;;;;;5.30;99.90;;;;;;5040517;28;19980;-75
2021/12/07 14:04:00;;;;;;;;;;;5.20;99.90;;;;;;5042792;28;19928;-74
2021/12/07 14:06:27;;;;;;;;;;;5.20;99.90;;;;;;5044521;28;19928;-74
2021/12/07 14:09:01;;;;;;;;;;;5.20;99.90;;;;;;5037460;28;20099;-74
2021/12/07 14:11:27;;;;;;;;;;;5.30;99.90;;;;;;5045365;28;19934;-74
2021/12/07 14:13:55;;;;;;;;;;;5.30;99.90;;;;;;5041333;28;20321;-74
2021/12/07 14:16:23;;;;;;;;;;;5.30;99.90;;;;;;5034476;28;19951;-74
2021/12/07 14:18:50;;;;;;;;;;;5.30;99.90;;;;;;5041139;28;19978;-74
2021/12/07 14:21:17;;;;;;;;;;;5.30;99.90;;;;;;5044678;28;19925;-75
2021/12/07 14:23:54;;;;;;;;;;;5.30;99.90;;;;;;5040814;28;19924;-74
2021/12/07 14:26:22;;;;;;;;;;;5.30;99.90;;;;;;5033823;28;20063;-74
2021/12/07 14:28:49;;;;;;;;;;;5.30;99.90;;;;;;5035121;28;19946;-74
2021/12/07 14:31:17;;;;;;;;;;;5.20;99.90;;;;;;5031502;28;20170;-74
2021/12/07 14:33:48;;;;;;;;;;;5.20;99.90;;;;;;5042692;28;19945;-75
2021/12/07 14:36:17;;;;;;;;;;;5.00;99.90;;;;;;5043039;28;19927;-74
2021/12/07 14:38:45;;;;;;;;;;;4.90;99.90;;;;;;5049604;28;19978;-74
2021/12/07 14:41:13;;;;;;;;;;;4.80;99.90;;;;;;5047199;28;20378;-74
2021/12/07 14:43:43;;;;;;;;;;;4.60;99.90;;;;;;5029965;28;19939;-75
2021/12/07 14:46:12;;;;;;;;;;;4.40;99.90;;;;;;5046119;28;19932;-73
2021/12/07 14:48:40;;;;;;;;;;;4.20;99.90;;;;;;5034472;28;20394;-73
2021/12/07 14:51:09;;;;;;;;;;;4.00;99.90;;;;;;5040374;28;19921;-73
2021/12/07 14:53:43;;;;;;;;;;;3.80;99.90;;;;;;5045864;28;19939;-72
2021/12/07 14:56:11;;;;;;;;;;;3.70;99.90;;;;;;5028951;28;20008;-73
2021/12/07 14:58:40;;;;;;;;;;;3.50;99.90;;;;;;5041213;28;20368;-72
2021/12/07 15:01:12;;;;;;;;;;;3.40;99.90;;;;;;5040554;28;20027;-73
2021/12/07 15:03:41;;;;;;;;;;;3.20;99.90;;;;;;5041316;28;19978;-73
2021/12/07 15:06:08;;;;;;;;;;;3.10;99.90;;;;;;5037989;28;19976;-73
2021/12/07 15:08:36;;;;;;;;;;;3.00;99.90;;;;;;5037105;28;20011;-73
2021/12/07 15:11:05;;;;;;;;;;;2.90;99.90;;;;;;5040009;28;20389;-73
2021/12/07 15:13:33;;;;;;;;;;;2.80;99.90;;;;;;5043735;28;20046;-73
2021/12/07 15:16:03;;;;;;;;;;;2.80;99.90;;;;;;5032880;28;19932;-73
2021/12/07 15:18:31;;;;;;;;;;;2.70;99.90;;;;;;5039124;28;20252;-72
2021/12/07 15:20:59;;;;;;;;;;;2.80;99.90;;;;;;5049234;28;19924;-73
2021/12/07 15:23:26;;;;;;;;;;;2.90;99.90;;;;;;5039030;28;19978;-73
2021/12/07 15:25:54;;;;;;;;;;;3.00;99.90;;;;;;5037758;28;20011;-73
2021/12/07 15:28:21;;;;;;;;;;;3.10;99.90;;;;;;5037836;28;20312;-73
2021/12/07 15:30:48;;;;;;;;;;;3.00;99.90;;;;;;5041113;28;20387;-73
2021/12/07 15:33:15;;;;;;;;;;;3.00;99.90;;;;;;5042874;28;19951;-73
2021/12/07 15:35:44;;;;;;;;;;;2.80;99.90;;;;;;5042565;28;20308;-73
2021/12/07 15:38:15;;;;;;;;;;;2.70;99.90;;;;;;5038013;28;19931;-73
2021/12/07 15:40:42;;;;;;;;;;;2.60;99.90;;;;;;5045155;28;19920;-73
2021/12/07 15:43:13;;;;;;;;;;;2.50;99.90;;;;;;5040026;28;20496;-73
2021/12/07 15:45:41;;;;;;;;;;;2.50;99.90;;;;;;5041258;28;20004;-73
2021/12/07 15:48:08;;;;;;;;;;;2.50;99.90;;;;;;5044287;28;19991;-73
2021/12/07 15:50:37;;;;;;;;;;;2.70;99.90;;;;;;5043364;28;19935;-74
2021/12/07 15:53:08;;;;;;;;;;;2.90;99.90;;;;;;5040978;28;19974;-73
2021/12/07 15:55:36;;;;;;;;;;;2.90;99.90;;;;;;5040950;28;20021;-73
2021/12/07 15:58:17;;;;;;;;;;;3.00;99.90;;;;;;5044216;28;19959;-78
2021/12/07 16:00:57;;;;;;;;;;;3.10;99.90;;;;;;5046143;28;20376;-77
2021/12/07 16:03:27;;;;;;;;;;;3.00;99.90;;;;;;5042195;28;19928;-76
2021/12/07 16:05:58;;;;;;;;;;;2.90;99.90;;;;;;5050791;28;20302;-76
2021/12/07 16:08:32;;;;;;;;;;;3.00;99.90;;;;;;5045752;28;20546;-78
2021/12/07 16:11:04;;;;;;;;;;;3.00;99.90;;;;;;5047622;28;19932;-77
2021/12/07 16:13:33;;;;;;;;;;;3.20;99.90;;;;;;5041783;28;19932;-77
2021/12/07 16:16:01;;;;;;;;;;;3.20;99.90;;;;;;5054429;28;19924;-77
2021/12/07 16:18:28;;;;;;;;;;;3.30;99.90;;;;;;5046015;28;19921;-77
2021/12/07 16:20:58;;;;;;;;;;;3.30;99.90;;;;;;5036939;28;19929;-77
2021/12/07 16:23:25;;;;;;;;;;;3.30;99.90;;;;;;5044500;28;19936;-77
2021/12/07 16:25:52;;;;;;;;;;;3.30;99.90;;;;;;5063280;28;19959;-77
2021/12/07 16:29:01;;;;;;;;;;;3.30;99.90;;;;;;5045254;28;19938;-76
2021/12/07 16:31:30;;;;;;;;;;;3.30;99.90;;;;;;5030545;28;19933;-77
2021/12/07 16:33:58;;;;;;;;;;;3.30;99.90;;;;;;5043187;28;20015;-78